Time;durP1;ratioP1;P1;durP2;ratioP2;P2;SDS_P1;SDS_P2;PMS_P1;PMS_P2;Temp;Humidity;BMP_temperature;BMP_pressure;BME280_temperature;BME280_humidity;BME280_pressure;Samples;Min_cycle;Max_cycle;Signal;HPM_P1;HPM_P2
2022/06/22 00:02:06;;;;;;;2.35;1.95;;;19.60;77.00;;;;;;5013125;28;20276;-92
2022/06/22 00:04:42;;;;;;;2.35;2.05;;;19.60;77.00;;;;;;5013473;28;20241;-92
2022/06/22 00:07:16;;;;;;;1.60;1.50;;;19.60;77.70;;;;;;5012707;28;20282;-92
2022/06/22 00:09:46;;;;;;;2.33;1.77;;;19.60;77.50;;;;;;5012620;28;20222;-92
2022/06/22 00:12:22;;;;;;;2.03;1.83;;;19.50;77.50;;;;;;5012912;28;20214;-92
2022/06/22 00:14:53;;;;;;;1.20;1.20;;;19.50;78.60;;;;;;5013122;28;20206;-92
2022/06/22 00:17:26;;;;;;;1.92;1.83;;;19.50;78.50;;;;;;5012852;28;20258;-91
2022/06/22 00:20:02;;;;;;;1.50;1.40;;;19.50;78.00;;;;;;5012949;28;20230;-91
2022/06/22 00:22:30;;;;;;;1.67;1.58;;;19.50;77.70;;;;;;5012556;28;20203;-92
2022/06/22 00:25:02;;;;;;;4.55;1.90;;;19.40;78.10;;;;;;5012795;28;20231;-92
2022/06/22 00:27:36;;;;;;;1.73;1.63;;;19.40;78.90;;;;;;5015495;28;20261;-92
2022/06/22 00:30:33;;;;;;;3.67;1.88;;;19.40;78.80;;;;;;5012656;28;20227;-92
2022/06/22 00:33:14;;;;;;;2.03;1.83;;;19.40;78.20;;;;;;5012920;28;20203;-91
2022/06/22 00:35:51;;;;;;;1.83;1.73;;;19.40;78.80;;;;;;5012886;28;20241;-91
2022/06/22 00:38:22;;;;;;;2.38;2.17;;;19.40;79.40;;;;;;5012513;28;20219;-92
2022/06/22 00:40:54;;;;;;;2.05;1.77;;;19.30;78.90;;;;;;5012897;28;20294;-92
2022/06/22 00:43:28;;;;;;;1.83;1.70;;;19.30;79.20;;;;;;5012760;28;20211;-92
2022/06/22 00:45:57;;;;;;;1.70;1.60;;;19.30;79.60;;;;;;5012978;28;20203;-92
2022/06/22 00:48:32;;;;;;;1.50;1.40;;;19.30;78.60;;;;;;5016485;28;20222;-92
2022/06/22 00:51:04;;;;;;;1.70;1.60;;;19.30;77.40;;;;;;5012758;28;20215;-92
2022/06/22 00:53:37;;;;;;;1.77;1.67;;;19.30;76.90;;;;;;5012855;28;20206;-92
2022/06/22 00:56:12;;;;;;;1.70;1.60;;;19.20;77.30;;;;;;5013132;28;20242;-93
2022/06/22 00:58:48;;;;;;;1.42;1.33;;;19.20;77.20;;;;;;5013189;28;20212;-92
2022/06/22 01:01:23;;;;;;;1.60;1.50;;;19.20;76.90;;;;;;5012594;28;20203;-91
2022/06/22 01:04:00;;;;;;;1.75;1.40;;;19.20;77.10;;;;;;5012972;28;20261;-92
2022/06/22 01:06:39;;;;;;;1.63;1.52;;;19.10;77.20;;;;;;5013631;28;20207;-91
2022/06/22 01:09:14;;;;;;;1.92;1.83;;;19.10;77.30;;;;;;5012278;28;20226;-92
2022/06/22 01:14:46;;;;;;;1.45;1.40;;;19.10;77.80;;;;;;5012415;28;20203;-91
2022/06/22 01:17:21;;;;;;;1.35;1.30;;;19.10;77.80;;;;;;5012714;28;20215;-92
2022/06/22 01:20:05;;;;;;;1.70;1.60;;;19.00;78.50;;;;;;5016257;28;20219;-91
2022/06/22 01:22:49;;;;;;;1.50;1.40;;;19.10;79.00;;;;;;5015975;28;20207;-92
2022/06/22 01:25:47;;;;;;;1.83;1.50;;;19.00;79.00;;;;;;5016942;28;20215;-92
2022/06/22 01:28:16;;;;;;;5.43;2.00;;;18.90;79.30;;;;;;5015958;28;20247;-91
2022/06/22 01:30:49;;;;;;;2.88;2.03;;;18.90;79.90;;;;;;5015395;28;20282;-91
2022/06/22 01:33:24;;;;;;;1.88;1.77;;;18.90;80.70;;;;;;5015569;28;20213;-91
2022/06/22 01:35:56;;;;;;;1.98;1.80;;;18.80;80.30;;;;;;5015555;28;20210;-92
2022/06/22 01:38:27;;;;;;;2.13;1.77;;;18.80;80.50;;;;;;5015661;28;20226;-92
2022/06/22 01:41:04;;;;;;;1.77;1.67;;;18.80;81.20;;;;;;5015568;28;20223;-91
2022/06/22 01:43:39;;;;;;;1.95;1.85;;;18.80;81.20;;;;;;5015953;28;20210;-92
2022/06/22 01:46:16;;;;;;;2.88;2.17;;;18.80;81.50;;;;;;5015464;28;20210;-92
2022/06/22 01:48:51;;;;;;;1.73;1.42;;;18.80;81.60;;;;;;5015730;28;20253;-92
2022/06/22 01:51:25;;;;;;;1.73;1.63;;;18.80;81.10;;;;;;5015194;28;20242;-92
2022/06/22 01:53:59;;;;;;;1.92;1.83;;;18.70;81.40;;;;;;5015260;28;20206;-91
2022/06/22 01:56:34;;;;;;;2.08;1.90;;;18.70;81.00;;;;;;5015395;28;20277;-92
2022/06/22 01:59:13;;;;;;;1.63;1.52;;;18.70;81.40;;;;;;5015419;28;20223;-92
2022/06/22 02:01:48;;;;;;;1.92;1.75;;;18.70;81.80;;;;;;5015541;28;20229;-91
2022/06/22 02:04:25;;;;;;;2.85;2.20;;;18.70;81.60;;;;;;5015160;28;20210;-92
2022/06/22 02:09:57;;;;;;;2.17;2.00;;;18.70;82.10;;;;;;5015075;28;20290;-92
2022/06/22 02:12:30;;;;;;;2.17;1.98;;;18.70;82.70;;;;;;5015156;28;20206;-91
2022/06/22 02:15:07;;;;;;;1.70;1.60;;;18.70;82.80;;;;;;5015467;28;20258;-92
2022/06/22 02:17:40;;;;;;;1.85;1.75;;;18.60;82.90;;;;;;5015183;28;20211;-91
2022/06/22 02:20:28;;;;;;;2.22;1.92;;;18.70;84.00;;;;;;5014952;28;20220;-91
2022/06/22 02:23:02;;;;;;;2.20;2.00;;;18.70;83.80;;;;;;5015455;28;20207;-92
2022/06/22 02:25:34;;;;;;;2.20;2.05;;;18.70;83.80;;;;;;5015763;28;20234;-92
2022/06/22 02:28:03;;;;;;;2.00;1.88;;;18.60;83.20;;;;;;5029300;28;20199;-91
2022/06/22 02:30:33;;;;;;;2.08;1.88;;;18.60;83.50;;;;;;5031309;28;20250;-91
2022/06/22 02:33:02;;;;;;;1.92;1.83;;;18.60;84.10;;;;;;5032236;28;20207;-92
2022/06/22 02:35:31;;;;;;;1.60;1.50;;;18.60;84.30;;;;;;5031462;28;20231;-91
2022/06/22 02:38:05;;;;;;;6.50;2.58;;;18.60;84.30;;;;;;5031071;28;20223;-90
2022/06/22 02:44:29;;;;;;;2.63;2.22;;;18.60;84.00;;;;;;5024514;28;20289;-91
2022/06/22 02:46:32;;;;;;;1.95;1.85;;;18.50;84.60;;;;;;4982835;28;20223;-92
2022/06/22 02:49:06;;;;;;;2.08;1.98;;;18.60;84.80;;;;;;4973728;28;20236;-92
2022/06/22 02:51:40;;;;;;;2.08;1.98;;;18.60;84.80;;;;;;4994776;28;20227;-92
2022/06/22 02:54:22;;;;;;;1.88;1.77;;;18.60;85.00;;;;;;5014822;28;20242;-91
2022/06/22 02:57:00;;;;;;;2.30;2.10;;;18.50;85.10;;;;;;5014178;28;20233;-92
2022/06/22 02:59:28;;;;;;;2.25;2.05;;;18.50;85.20;;;;;;5014372;28;20247;-91
2022/06/22 03:01:59;;;;;;;2.17;1.98;;;18.50;85.70;;;;;;5014327;28;20215;-91
2022/06/22 03:04:28;;;;;;;1.55;1.45;;;18.50;86.30;;;;;;5014077;28;20294;-92
2022/06/22 03:06:57;;;;;;;1.80;1.70;;;18.50;86.30;;;;;;5014058;28;20290;-92
2022/06/22 03:09:28;;;;;;;2.20;2.00;;;18.50;87.10;;;;;;5013773;28;20247;-92
2022/06/22 03:11:59;;;;;;;3.10;2.30;;;18.40;89.20;;;;;;5014191;28;20211;-92
2022/06/22 03:14:31;;;;;;;5.18;2.58;;;18.40;90.40;;;;;;5013948;28;20235;-92
2022/06/22 03:17:04;;;;;;;2.17;1.88;;;18.40;90.80;;;;;;5013567;28;20233;-91
2022/06/22 03:19:40;;;;;;;2.10;1.90;;;18.40;90.80;;;;;;5013448;28;20261;-92
2022/06/22 03:22:16;;;;;;;2.30;2.10;;;18.40;91.00;;;;;;5013936;28;20225;-92
2022/06/22 03:24:51;;;;;;;2.60;2.40;;;18.40;91.60;;;;;;5013836;28;20203;-91
2022/06/22 03:27:29;;;;;;;3.72;2.15;;;18.40;91.30;;;;;;5013900;28;20322;-92
2022/06/22 03:30:01;;;;;;;2.00;1.90;;;18.40;91.30;;;;;;5013248;28;20258;-92
2022/06/22 03:32:37;;;;;;;1.83;1.73;;;18.50;91.50;;;;;;5014581;28;20265;-91
2022/06/22 03:35:11;;;;;;;2.13;1.98;;;18.50;91.60;;;;;;5015042;28;20203;-91
2022/06/22 03:37:45;;;;;;;2.55;2.13;;;18.50;91.50;;;;;;5015074;28;20227;-91
2022/06/22 03:40:23;;;;;;;1.75;1.65;;;18.50;91.60;;;;;;5014797;28;20226;-91
2022/06/22 03:42:55;;;;;;;2.40;2.22;;;18.40;91.90;;;;;;5013822;28;20206;-92
2022/06/22 03:45:28;;;;;;;2.53;2.33;;;18.40;92.20;;;;;;5013339;28;20215;-91
2022/06/22 03:48:04;;;;;;;2.38;2.05;;;18.40;92.60;;;;;;5013282;28;20222;-91
2022/06/22 03:50:39;;;;;;;2.25;1.90;;;18.40;92.80;;;;;;5013534;28;20226;-91
2022/06/22 03:53:17;;;;;;;2.15;1.95;;;18.40;93.10;;;;;;5014940;28;20210;-91
2022/06/22 03:55:51;;;;;;;3.03;2.35;;;18.40;93.30;;;;;;5014640;28;20213;-92
2022/06/22 03:58:20;;;;;;;2.88;2.28;;;18.50;93.40;;;;;;5013603;28;20207;-91
2022/06/22 04:00:49;;;;;;;2.67;2.15;;;18.50;93.10;;;;;;5012750;28;20199;-91
2022/06/22 04:03:20;;;;;;;2.17;1.98;;;18.60;92.80;;;;;;5013688;28;20209;-91
2022/06/22 04:05:54;;;;;;;2.05;1.85;;;18.70;91.70;;;;;;5014517;28;20225;-91
2022/06/22 04:08:27;;;;;;;1.98;1.88;;;18.70;91.40;;;;;;5015394;28;20206;-91
2022/06/22 04:11:01;;;;;;;3.15;2.25;;;18.90;91.60;;;;;;5014768;28;20266;-91
2022/06/22 04:13:35;;;;;;;2.55;1.98;;;18.90;92.10;;;;;;5014202;28;20207;-89
2022/06/22 04:16:09;;;;;;;2.15;1.95;;;19.00;90.40;;;;;;5012746;28;20242;-89
2022/06/22 04:18:43;;;;;;;1.92;1.83;;;19.10;90.40;;;;;;5012881;28;20277;-89
2022/06/22 04:21:16;;;;;;;2.28;2.08;;;19.10;90.10;;;;;;5012927;28;20286;-89
2022/06/22 04:23:49;;;;;;;2.70;1.83;;;19.10;90.00;;;;;;5013094;28;20234;-89
2022/06/22 04:26:22;;;;;;;2.20;2.00;;;19.10;89.20;;;;;;5015325;28;20269;-91
2022/06/22 04:28:54;;;;;;;1.90;1.60;;;19.20;88.50;;;;;;5014838;28;20239;-92
2022/06/22 04:31:27;;;;;;;3.30;1.63;;;19.20;87.70;;;;;;5014617;28;20223;-91
2022/06/22 04:34:04;;;;;;;2.60;2.25;;;19.20;88.30;;;;;;5015606;28;20203;-92
2022/06/22 04:36:40;;;;;;;2.00;1.90;;;19.30;88.40;;;;;;5014714;28;20207;-92
2022/06/22 04:39:17;;;;;;;1.60;1.50;;;19.30;88.30;;;;;;5016400;28;20245;-90
2022/06/22 04:41:48;;;;;;;6.78;1.98;;;19.40;88.50;;;;;;5052086;23;20234;-86
2022/06/22 04:44:22;;;;;;;1.70;1.60;;;19.40;87.90;;;;;;5032732;28;20233;-86
2022/06/22 04:46:53;;;;;;;2.15;2.03;;;19.30;87.80;;;;;;5032664;28;20298;-86
2022/06/22 04:49:28;;;;;;;1.83;1.73;;;19.30;87.80;;;;;;5032302;28;20214;-86
2022/06/22 04:52:01;;;;;;;2.17;1.80;;;19.40;87.70;;;;;;5032171;28;20252;-86
2022/06/22 04:54:33;;;;;;;2.33;2.08;;;19.40;87.10;;;;;;5035700;28;20202;-86
2022/06/22 04:57:10;;;;;;;2.30;1.92;;;19.50;86.80;;;;;;5036277;28;20293;-86
2022/06/22 04:59:39;;;;;;;2.40;1.80;;;19.60;87.40;;;;;;5036523;28;20218;-86
2022/06/22 05:02:12;;;;;;;1.48;1.38;;;19.70;87.00;;;;;;5035736;28;20282;-86
2022/06/22 05:04:45;;;;;;;2.03;1.90;;;19.70;87.00;;;;;;5035913;28;20396;-86
2022/06/22 05:07:38;;;;;;;3.72;1.88;;;19.70;87.00;;;;;;5035641;28;20271;-86
2022/06/22 05:10:14;;;;;;;2.40;2.17;;;19.80;85.70;;;;;;5035770;28;20258;-86
2022/06/22 05:12:47;;;;;;;1.70;1.60;;;19.80;86.50;;;;;;5035909;28;20294;-85
2022/06/22 05:15:23;;;;;;;2.65;1.90;;;19.70;86.30;;;;;;5035983;28;20265;-86
2022/06/22 05:17:52;;;;;;;2.45;2.25;;;19.70;87.40;;;;;;5035898;28;20209;-86
2022/06/22 05:20:29;;;;;;;1.80;1.70;;;19.80;87.00;;;;;;5035390;28;20231;-86
2022/06/22 05:23:00;;;;;;;3.80;1.58;;;19.80;87.30;;;;;;5035698;28;20265;-86
2022/06/22 05:25:31;;;;;;;1.70;1.60;;;19.90;86.40;;;;;;5035537;28;20298;-86
2022/06/22 05:28:03;;;;;;;1.42;1.33;;;19.90;85.70;;;;;;5035829;28;20289;-86
2022/06/22 05:30:35;;;;;;;12.05;1.88;;;19.90;84.10;;;;;;5035244;28;20309;-86
2022/06/22 05:33:10;;;;;;;1.52;1.42;;;19.90;82.60;;;;;;5035405;28;20210;-86
2022/06/22 05:35:46;;;;;;;1.30;1.20;;;19.90;82.80;;;;;;5034974;28;20245;-86
2022/06/22 05:38:17;;;;;;;1.73;1.63;;;20.10;82.80;;;;;;5035100;28;20293;-86
2022/06/22 05:40:47;;;;;;;2.40;1.55;;;20.10;82.80;;;;;;5035085;28;20302;-86
2022/06/22 05:43:17;;;;;;;1.35;1.25;;;20.10;82.50;;;;;;5035418;28;20266;-85
2022/06/22 05:45:48;;;;;;;1.27;1.23;;;20.20;82.10;;;;;;5035236;28;20202;-85
2022/06/22 05:48:20;;;;;;;1.55;1.45;;;20.20;82.30;;;;;;5035300;28;20237;-86
2022/06/22 05:50:55;;;;;;;1.88;1.60;;;20.20;82.30;;;;;;5034878;28;20309;-86
2022/06/22 05:53:28;;;;;;;1.45;1.35;;;20.10;81.60;;;;;;5035282;28;20206;-86
2022/06/22 05:56:09;;;;;;;1.50;1.30;;;20.10;81.60;;;;;;5035132;28;20284;-86
2022/06/22 05:58:44;;;;;;;2.42;1.73;;;20.20;81.20;;;;;;5035178;28;20214;-86
2022/06/22 06:01:21;;;;;;;2.63;1.50;;;20.20;80.30;;;;;;5035067;28;20310;-85
2022/06/22 06:03:58;;;;;;;1.70;1.60;;;20.30;80.40;;;;;;5034509;28;20242;-85
2022/06/22 06:06:32;;;;;;;1.67;1.58;;;20.30;80.40;;;;;;5034898;28;20210;-86
2022/06/22 06:09:02;;;;;;;1.67;1.58;;;20.40;81.00;;;;;;5035178;28;20210;-86
2022/06/22 06:11:36;;;;;;;1.60;1.50;;;20.40;79.90;;;;;;5034533;28;20305;-86
2022/06/22 06:14:10;;;;;;;1.45;1.35;;;20.40;79.80;;;;;;5034611;28;20302;-86
2022/06/22 06:16:45;;;;;;;2.25;1.83;;;20.50;79.30;;;;;;5034597;28;20284;-86
2022/06/22 06:19:18;;;;;;;5.28;1.33;;;20.50;79.40;;;;;;5035025;28;20210;-86
2022/06/22 06:21:53;;;;;;;2.40;1.73;;;20.50;80.00;;;;;;5034586;28;20305;-86
2022/06/22 06:24:24;;;;;;;1.73;1.63;;;20.50;80.60;;;;;;5034411;28;20229;-86
2022/06/22 06:29:47;;;;;;;1.90;1.80;;;20.80;81.00;;;;;;5034706;28;20249;-86
2022/06/22 06:32:33;;;;;;;5.45;1.83;;;21.00;80.50;;;;;;5034064;28;20230;-86
2022/06/22 06:35:08;;;;;;;1.70;1.60;;;21.10;80.20;;;;;;5034626;28;20229;-86
2022/06/22 06:37:49;;;;;;;1.77;1.67;;;21.10;80.00;;;;;;5033775;28;20270;-85
2022/06/22 06:40:24;;;;;;;1.75;1.65;;;21.30;79.40;;;;;;5034292;28;20250;-85
2022/06/22 06:42:59;;;;;;;1.15;1.15;;;21.30;77.80;;;;;;5034357;28;20297;-86
2022/06/22 06:45:29;;;;;;;2.22;1.50;;;21.30;78.20;;;;;;5033816;28;20208;-86
2022/06/22 06:48:02;;;;;;;2.35;1.70;;;21.30;77.30;;;;;;5034572;28;20230;-86
2022/06/22 06:50:36;;;;;;;1.50;1.40;;;21.30;77.40;;;;;;5033977;28;20310;-86
2022/06/22 06:53:17;;;;;;;2.10;1.50;;;21.10;77.60;;;;;;5034147;28;20213;-86
2022/06/22 06:55:51;;;;;;;1.50;1.40;;;21.20;79.70;;;;;;5034153;28;20233;-86
2022/06/22 06:58:26;;;;;;;2.38;1.52;;;21.30;77.90;;;;;;5033813;28;20206;-86
2022/06/22 07:00:54;;;;;;;1.23;1.20;;;21.40;78.80;;;;;;5034387;28;20264;-86
2022/06/22 07:03:28;;;;;;;1.50;1.40;;;21.70;78.40;;;;;;5033768;28;20206;-86
2022/06/22 07:05:56;;;;;;;1.55;1.45;;;22.00;78.20;;;;;;5033911;28;20210;-86
2022/06/22 07:08:34;;;;;;;1.50;1.40;;;22.20;77.50;;;;;;5033887;28;20203;-86
2022/06/22 07:11:14;;;;;;;1.50;1.40;;;22.40;78.40;;;;;;5033485;28;20228;-86
2022/06/22 07:13:48;;;;;;;1.27;1.17;;;22.60;76.80;;;;;;5033872;28;20213;-85
2022/06/22 07:16:21;;;;;;;1.60;1.50;;;22.70;76.50;;;;;;5033519;28;20264;-86
2022/06/22 07:18:54;;;;;;;1.60;1.50;;;22.90;76.40;;;;;;5033441;28;20210;-85
2022/06/22 07:21:32;;;;;;;1.70;1.25;;;23.40;76.00;;;;;;5033007;28;20283;-85
2022/06/22 07:24:08;;;;;;;1.50;1.40;;;24.30;75.90;;;;;;5033082;28;20225;-86
2022/06/22 07:26:48;;;;;;;1.52;1.42;;;25.40;74.00;;;;;;5033804;28;20210;-86
2022/06/22 07:29:23;;;;;;;1.55;1.38;;;26.10;71.70;;;;;;5033540;28;20206;-86
2022/06/22 07:31:58;;;;;;;1.60;1.50;;;26.30;69.70;;;;;;5033073;28;20229;-86
2022/06/22 07:34:34;;;;;;;1.48;1.38;;;26.40;70.30;;;;;;5033267;28;20210;-86
2022/06/22 07:37:11;;;;;;;1.80;1.30;;;26.40;69.40;;;;;;5033525;28;20284;-86
2022/06/22 07:39:47;;;;;;;1.48;1.38;;;26.20;68.60;;;;;;5032922;28;20264;-86
2022/06/22 07:42:15;;;;;;;1.30;1.20;;;25.90;67.30;;;;;;5033168;28;20198;-86
2022/06/22 07:44:44;;;;;;;1.38;1.35;;;25.90;67.50;;;;;;5033285;28;20289;-86
2022/06/22 07:47:19;;;;;;;1.25;1.25;;;25.80;68.50;;;;;;5032919;28;20288;-86
2022/06/22 07:49:52;;;;;;;1.58;1.48;;;25.90;68.20;;;;;;5032903;28;20236;-86
2022/06/22 07:52:25;;;;;;;1.75;1.65;;;26.20;68.70;;;;;;5032660;28;20317;-86
2022/06/22 07:55:03;;;;;;;2.05;1.73;;;26.80;67.50;;;;;;5033069;28;20206;-86
2022/06/22 07:57:41;;;;;;;2.90;1.70;;;27.20;66.60;;;;;;5033145;28;20265;-86
2022/06/22 08:00:13;;;;;;;1.75;1.65;;;27.80;65.00;;;;;;5032816;28;20289;-86
2022/06/22 08:02:49;;;;;;;2.42;1.95;;;27.80;64.30;;;;;;5032847;28;20266;-85
2022/06/22 08:05:22;;;;;;;3.75;1.63;;;28.20;62.80;;;;;;5033040;28;20210;-86
2022/06/22 08:07:54;;;;;;;1.35;1.25;;;29.10;61.70;;;;;;5032573;28;20212;-86
2022/06/22 08:10:29;;;;;;;1.63;1.30;;;30.00;60.40;;;;;;5032617;28;20436;-86
2022/06/22 08:13:04;;;;;;;1.00;1.00;;;30.40;59.60;;;;;;5032697;28;20229;-86
2022/06/22 08:15:37;;;;;;;3.40;1.52;;;31.80;58.60;;;;;;5032981;28;20206;-86
2022/06/22 08:18:07;;;;;;;1.85;1.35;;;31.50;56.20;;;;;;5032678;28;20320;-86
2022/06/22 08:20:40;;;;;;;2.17;1.50;;;31.20;57.20;;;;;;5032445;28;20226;-86
2022/06/22 08:23:13;;;;;;;2.00;1.77;;;31.50;56.60;;;;;;5032777;28;20265;-86
2022/06/22 08:26:03;;;;;;;1.60;1.50;;;32.80;55.70;;;;;;5032834;28;20210;-84
2022/06/22 08:28:34;;;;;;;1.70;1.60;;;32.80;53.90;;;;;;5034946;28;20202;-84
2022/06/22 08:31:03;;;;;;;1.40;1.30;;;32.30;54.70;;;;;;5036598;28;20281;-84
2022/06/22 08:33:37;;;;;;;1.48;1.38;;;32.60;53.90;;;;;;5036118;28;20225;-84
2022/06/22 08:36:11;;;;;;;2.17;1.98;;;32.90;53.90;;;;;;5036590;28;20300;-84
2022/06/22 08:38:44;;;;;;;1.38;1.30;;;31.90;54.10;;;;;;5036348;28;20213;-84
2022/06/22 08:41:26;;;;;;;2.05;1.67;;;32.10;54.70;;;;;;5035938;28;20236;-84
2022/06/22 08:44:02;;;;;;;1.67;1.30;;;31.80;54.60;;;;;;5036323;28;20209;-84
2022/06/22 08:46:54;;;;;;;1.27;1.27;;;31.00;55.30;;;;;;5036345;28;20261;-84
2022/06/22 08:49:44;;;;;;;2.28;2.08;;;30.00;56.30;;;;;;5036416;28;20203;-84
2022/06/22 08:52:25;;;;;;;1.50;1.40;;;29.60;57.40;;;;;;5036404;28;20283;-84
2022/06/22 08:55:30;;;;;;;1.80;1.65;;;29.10;58.00;;;;;;5036068;28;20213;-84
2022/06/22 08:58:18;;;;;;;1.33;1.23;;;28.90;57.90;;;;;;5036218;28;20215;-84
2022/06/22 09:01:06;;;;;;;1.85;1.40;;;28.70;58.40;;;;;;5035966;28;20257;-84
2022/06/22 09:04:16;;;;;;;3.35;1.50;;;28.30;58.80;;;;;;5036278;28;20203;-84
2022/06/22 09:07:04;;;;;;;1.65;1.45;;;28.00;60.40;;;;;;5036028;28;20271;-84
2022/06/22 09:10:24;;;;;;;1.25;1.15;;;27.80;60.40;;;;;;5036368;28;20206;-84
2022/06/22 09:13:15;;;;;;;1.58;1.20;;;27.80;60.00;;;;;;4994508;28;20228;-84
2022/06/22 09:15:52;;;;;;;2.00;1.50;;;28.10;60.60;;;;;;4994652;28;20295;-84
2022/06/22 09:18:39;;;;;;;1.55;1.45;;;28.10;60.30;;;;;;5022147;28;20244;-85
2022/06/22 09:21:17;;;;;;;1.40;1.30;;;28.50;63.20;;;;;;5035891;28;20313;-85
2022/06/22 09:24:01;;;;;;;1.38;1.33;;;29.50;59.70;;;;;;5035741;28;20201;-85
2022/06/22 09:26:36;;;;;;;1.60;1.50;;;29.70;58.10;;;;;;5035462;28;20292;-85
2022/06/22 09:29:20;;;;;;;2.45;1.52;;;30.00;57.40;;;;;;5035468;28;20232;-85
2022/06/22 09:32:16;;;;;;;1.60;1.50;;;30.30;56.80;;;;;;5035292;28;20250;-85
2022/06/22 09:35:07;;;;;;;1.70;1.60;;;30.00;56.90;;;;;;5035811;28;20206;-85
2022/06/22 09:37:58;;;;;;;1.60;1.50;;;30.10;57.50;;;;;;5035101;28;20289;-85
2022/06/22 09:40:51;;;;;;;3.08;1.52;;;30.00;58.00;;;;;;5034644;28;20307;-85
2022/06/22 09:44:05;;;;;;;1.73;1.63;;;29.70;57.40;;;;;;5035618;28;20206;-85
2022/06/22 09:47:01;;;;;;;1.33;1.23;;;29.10;59.00;;;;;;4993771;28;20240;-85
2022/06/22 09:49:52;;;;;;;2.50;1.75;;;28.80;60.00;;;;;;4993965;28;20291;-84
2022/06/22 09:52:40;;;;;;;2.30;1.80;;;29.40;58.60;;;;;;5030499;28;20290;-85
2022/06/22 09:58:35;;;;;;;1.50;1.40;;;30.90;56.60;;;;;;5034973;28;20296;-84
2022/06/22 10:01:12;;;;;;;1.88;1.77;;;31.70;55.00;;;;;;5035054;28;20226;-85
2022/06/22 10:04:07;;;;;;;1.50;1.40;;;31.60;54.50;;;;;;5035322;28;20202;-85
2022/06/22 10:06:50;;;;;;;3.00;1.35;;;32.10;55.50;;;;;;5035172;28;20240;-85
2022/06/22 10:09:38;;;;;;;3.55;1.65;;;32.90;53.10;;;;;;5035110;28;20236;-85
2022/06/22 10:12:22;;;;;;;1.25;1.13;;;32.80;52.40;;;;;;5034523;28;20277;-84
2022/06/22 10:15:20;;;;;;;1.80;1.70;;;32.80;53.30;;;;;;5034702;28;20217;-85
2022/06/22 10:18:10;;;;;;;1.40;1.27;;;32.60;52.60;;;;;;5034899;28;20206;-85
2022/06/22 10:20:48;;;;;;;1.45;1.35;;;32.30;53.60;;;;;;5034359;28;20225;-84
2022/06/22 10:23:42;;;;;;;1.85;1.50;;;32.70;52.90;;;;;;5034784;28;20193;-84
2022/06/22 10:26:29;;;;;;;3.00;1.70;;;33.20;50.90;;;;;;5034616;28;20202;-85
2022/06/22 10:29:20;;;;;;;3.90;1.60;;;34.00;52.20;;;;;;5034621;28;20209;-85
2022/06/22 10:32:09;;;;;;;1.33;1.25;;;33.70;51.20;;;;;;5034518;28;20313;-84
2022/06/22 10:34:50;;;;;;;4.22;1.80;;;32.60;51.80;;;;;;5034603;28;20231;-85
2022/06/22 10:37:45;;;;;;;2.50;1.63;;;32.50;52.20;;;;;;5034173;28;20213;-85
2022/06/22 10:46:38;;;;;;;1.40;1.30;;;32.50;52.30;;;;;;5034369;28;20218;-85
2022/06/22 10:49:31;;;;;;;1.77;1.30;;;32.30;53.40;;;;;;5034214;28;20236;-86
2022/06/22 10:52:33;;;;;;;1.60;1.50;;;32.70;52.60;;;;;;5033201;28;20245;-86
2022/06/22 10:55:27;;;;;;;1.50;1.40;;;32.50;52.60;;;;;;5033808;28;20206;-85
2022/06/22 10:58:16;;;;;;;1.73;1.48;;;32.60;53.80;;;;;;5033796;28;20293;-85
2022/06/22 11:00:57;;;;;;;1.80;1.70;;;32.80;51.50;;;;;;5033725;28;20313;-85
2022/06/22 11:04:10;;;;;;;1.48;1.38;;;32.90;53.20;;;;;;5034059;28;20289;-86
2022/06/22 11:07:01;;;;;;;1.52;1.42;;;33.00;52.30;;;;;;5009028;28;20217;-85
2022/06/22 11:09:51;;;;;;;1.77;1.67;;;33.70;52.40;;;;;;5033548;28;20296;-85
2022/06/22 11:12:37;;;;;;;1.92;1.52;;;34.10;52.70;;;;;;5033252;28;20297;-85
2022/06/22 11:15:33;;;;;;;1.42;1.33;;;34.00;50.90;;;;;;5033770;28;20230;-84
2022/06/22 11:18:19;;;;;;;1.92;1.80;;;34.20;51.20;;;;;;5033638;28;20289;-85
2022/06/22 11:20:58;;;;;;;1.73;1.63;;;34.00;51.80;;;;;;5033592;28;20324;-85
2022/06/22 11:23:46;;;;;;;1.73;1.58;;;34.10;51.10;;;;;;5033573;28;20201;-85
2022/06/22 11:32:47;;;;;;;2.20;1.98;;;34.80;49.90;;;;;;5033438;28;20301;-86
2022/06/22 11:35:39;;;;;;;1.52;1.42;;;34.30;50.70;;;;;;5033150;28;20302;-85
2022/06/22 11:38:22;;;;;;;1.40;1.30;;;33.90;51.20;;;;;;5032696;28;20289;-86
2022/06/22 11:41:03;;;;;;;1.95;1.65;;;33.70;51.30;;;;;;5032574;28;20231;-86
2022/06/22 11:43:59;;;;;;;8.43;1.70;;;34.00;51.20;;;;;;5032861;28;20292;-86
2022/06/22 11:46:34;;;;;;;1.45;1.35;;;34.00;51.20;;;;;;5029446;28;20293;-86
2022/06/22 11:49:21;;;;;;;3.83;1.77;;;34.40;50.80;;;;;;5033065;28;20284;-86
2022/06/22 11:52:32;;;;;;;2.45;1.60;;;34.80;49.80;;;;;;5032812;28;20261;-86
2022/06/22 11:55:20;;;;;;;3.65;1.98;;;34.70;49.60;;;;;;4991268;28;20265;-86
2022/06/22 11:58:42;;;;;;;1.85;1.75;;;34.60;50.10;;;;;;5029725;28;20201;-86
2022/06/22 12:01:43;;;;;;;1.70;1.60;;;34.10;51.10;;;;;;4991342;28;20310;-86
2022/06/22 12:04:39;;;;;;;1.63;1.52;;;33.90;49.40;;;;;;5032088;28;20208;-86
2022/06/22 12:07:32;;;;;;;2.15;1.95;;;34.40;50.20;;;;;;5032378;28;20289;-86
2022/06/22 12:10:13;;;;;;;2.88;1.75;;;35.00;50.90;;;;;;5032662;28;20217;-86
2022/06/22 12:13:04;;;;;;;2.03;1.90;;;35.20;50.00;;;;;;5032982;28;20261;-86
2022/06/22 12:15:52;;;;;;;2.22;1.80;;;35.80;49.50;;;;;;5032685;28;20313;-86
2022/06/22 12:18:40;;;;;;;1.58;1.48;;;36.00;48.90;;;;;;5032592;28;20229;-86
2022/06/22 12:21:40;;;;;;;5.82;1.65;;;35.50;49.20;;;;;;5032706;28;20248;-86
2022/06/22 12:24:18;;;;;;;3.33;2.22;;;35.20;48.60;;;;;;5012304;28;20284;-86
2022/06/22 12:26:55;;;;;;;5.32;2.00;;;35.00;50.70;;;;;;5032378;28;20232;-86
2022/06/22 12:29:44;;;;;;;1.67;1.58;;;34.60;50.30;;;;;;5032802;28;20259;-86
2022/06/22 12:32:17;;;;;;;2.00;1.90;;;34.40;51.30;;;;;;5032754;28;20202;-86
2022/06/22 12:35:00;;;;;;;1.70;1.60;;;34.10;50.70;;;;;;5032288;28;20226;-86
2022/06/22 12:37:31;;;;;;;1.75;1.65;;;33.70;51.00;;;;;;5032229;28;20290;-86
2022/06/22 12:40:05;;;;;;;1.85;1.75;;;33.60;52.60;;;;;;5032064;28;20313;-86
2022/06/22 12:43:00;;;;;;;6.78;2.13;;;33.60;51.40;;;;;;5032509;28;20293;-86
2022/06/22 12:45:54;;;;;;;3.20;1.90;;;33.40;51.50;;;;;;5032827;28;20271;-86
2022/06/22 12:48:53;;;;;;;1.67;1.58;;;33.60;51.20;;;;;;5030096;28;20222;-86
2022/06/22 12:51:27;;;;;;;1.95;1.80;;;33.70;51.30;;;;;;5027538;28;20294;-86
2022/06/22 12:54:02;;;;;;;1.80;1.70;;;32.90;50.90;;;;;;5032472;28;20306;-86
2022/06/22 12:56:35;;;;;;;2.25;1.90;;;32.70;52.20;;;;;;5032136;28;20201;-85
2022/06/22 12:59:08;;;;;;;2.20;2.00;;;32.40;52.90;;;;;;5032541;28;20290;-86
2022/06/22 13:01:37;;;;;;;1.60;1.52;;;32.10;53.70;;;;;;5032185;28;20253;-86
2022/06/22 13:04:11;;;;;;;2.45;1.88;;;31.70;53.10;;;;;;5032563;28;20198;-86
2022/06/22 13:06:49;;;;;;;2.10;1.83;;;31.60;54.10;;;;;;5032299;28;20206;-86
2022/06/22 13:09:19;;;;;;;1.92;1.83;;;31.50;54.50;;;;;;5032438;28;20245;-86
2022/06/22 13:11:49;;;;;;;2.63;2.25;;;31.30;55.60;;;;;;5032009;28;20257;-86
2022/06/22 13:14:32;;;;;;;1.95;1.85;;;31.30;55.40;;;;;;5034004;28;20226;-86
2022/06/22 13:17:09;;;;;;;2.97;1.98;;;31.30;55.00;;;;;;5035839;28;20206;-86
2022/06/22 13:19:47;;;;;;;1.70;1.58;;;30.90;55.20;;;;;;5035682;28;20298;-86
2022/06/22 13:22:25;;;;;;;2.33;2.13;;;30.60;55.70;;;;;;5035662;28;20230;-86
2022/06/22 13:25:03;;;;;;;1.70;1.60;;;30.60;56.70;;;;;;5035505;28;20206;-86
2022/06/22 13:27:41;;;;;;;4.22;1.67;;;30.50;56.10;;;;;;5035391;28;20249;-86
2022/06/22 13:30:17;;;;;;;1.95;1.85;;;30.20;56.30;;;;;;5035522;28;20236;-86
2022/06/22 13:32:51;;;;;;;5.07;2.15;;;30.10;57.20;;;;;;5036509;28;20241;-86
2022/06/22 13:35:27;;;;;;;2.50;1.83;;;30.00;57.10;;;;;;5035714;28;20227;-86
2022/06/22 13:38:36;;;;;;;3.67;2.20;;;30.00;58.60;;;;;;5035526;28;20211;-85
2022/06/22 13:41:24;;;;;;;1.63;1.42;;;30.10;58.30;;;;;;5034822;28;20258;-85
2022/06/22 13:44:03;;;;;;;1.85;1.70;;;30.10;58.60;;;;;;5035242;28;20253;-85
2022/06/22 13:46:55;;;;;;;2.38;2.17;;;29.80;58.10;;;;;;5035540;28;20213;-85
2022/06/22 13:49:35;;;;;;;2.65;1.80;;;29.70;59.10;;;;;;5035520;28;20293;-86
2022/06/22 13:52:28;;;;;;;1.85;1.75;;;29.70;59.10;;;;;;5035339;28;20214;-85
2022/06/22 13:55:22;;;;;;;2.00;1.80;;;29.60;59.00;;;;;;5035300;28;20240;-85
2022/06/22 13:57:56;;;;;;;2.20;2.00;;;29.40;59.70;;;;;;5035225;28;20206;-85
2022/06/22 14:00:30;;;;;;;2.80;2.05;;;29.10;59.60;;;;;;5035045;28;20305;-86
2022/06/22 14:03:07;;;;;;;2.67;2.03;;;28.90;60.30;;;;;;5034986;28;20218;-85
2022/06/22 14:05:42;;;;;;;2.47;1.88;;;28.90;60.40;;;;;;5035332;28;20206;-85
2022/06/22 14:08:38;;;;;;;1.80;1.70;;;28.70;60.40;;;;;;5034981;28;20287;-85
2022/06/22 14:11:13;;;;;;;2.28;1.77;;;28.50;60.70;;;;;;5032308;28;20226;-85
2022/06/22 14:13:49;;;;;;;1.90;1.80;;;28.60;61.40;;;;;;5035105;28;20301;-85
2022/06/22 14:16:23;;;;;;;1.88;1.60;;;28.70;61.10;;;;;;5034793;28;20218;-85